createdAt,value
2022-08-11T00:00:16.556Z,69.70
2022-08-11T00:01:16.529Z,69.64
2022-08-11T00:02:16.552Z,69.64
2022-08-11T00:03:16.556Z,70.12
2022-08-11T00:04:16.481Z,69.54
2022-08-11T00:05:16.471Z,69.64
2022-08-11T00:06:16.441Z,70.09
2022-08-11T00:07:16.442Z,69.74
2022-08-11T00:08:16.420Z,69.54
2022-08-11T00:09:16.415Z,70.22
2022-08-11T00:10:17.343Z,70.12
2022-08-11T00:11:16.369Z,70.42
2022-08-11T00:12:16.354Z,70.42
2022-08-11T00:13:16.973Z,70.09
2022-08-11T00:14:16.331Z,70.39
2022-08-11T00:15:16.329Z,70.67
2022-08-11T00:16:16.298Z,69.90
2022-08-11T00:17:16.283Z,69.80
2022-08-11T00:18:16.282Z,70.51
2022-08-11T00:19:16.262Z,70.32
2022-08-11T00:20:17.158Z,70.57
2022-08-11T00:21:16.898Z,70.87
2022-08-11T00:22:16.211Z,71.00
2022-08-11T00:23:17.402Z,70.77
2022-08-11T00:24:16.189Z,70.90
2022-08-11T00:25:16.224Z,70.77
2022-08-11T00:26:16.859Z,71.00
2022-08-11T00:27:16.144Z,70.97
2022-08-11T00:28:16.212Z,71.16
2022-08-11T00:29:16.138Z,70.97
2022-08-11T00:30:16.862Z,71.06
2022-08-11T00:31:16.142Z,71.45
2022-08-11T00:32:16.074Z,71.16
2022-08-11T00:33:16.062Z,70.97
2022-08-11T00:34:16.068Z,70.67
2022-08-11T00:35:53.702Z,71.06
2022-08-11T00:36:16.025Z,71.36
2022-08-11T00:37:16.006Z,71.26
2022-08-11T00:38:15.999Z,71.26
2022-08-11T00:39:16.040Z,71.36
2022-08-11T00:40:15.953Z,71.36
2022-08-11T00:41:15.994Z,71.36
2022-08-11T00:42:15.934Z,71.26
2022-08-11T00:43:19.821Z,71.06
2022-08-11T00:44:15.935Z,71.26
2022-08-11T00:45:15.881Z,71.45
2022-08-11T00:46:15.926Z,71.45
2022-08-11T00:47:15.850Z,71.64
2022-08-11T00:48:15.859Z,71.84
2022-08-11T00:49:15.845Z,71.84
2022-08-11T00:50:15.865Z,71.55
2022-08-11T00:51:15.818Z,71.74
2022-08-11T00:52:15.782Z,71.64
2022-08-11T00:53:15.780Z,71.84
2022-08-11T00:54:15.765Z,71.84
2022-08-11T00:55:16.360Z,71.74
2022-08-11T00:56:15.732Z,71.84
2022-08-11T00:57:36.356Z,71.84
2022-08-11T00:58:22.527Z,72.03
2022-08-11T00:59:34.317Z,71.84
2022-08-11T01:00:15.676Z,71.74
2022-08-11T01:01:15.683Z,71.45
2022-08-11T01:02:15.644Z,71.55
2022-08-11T01:03:15.665Z,72.03
2022-08-11T01:04:15.601Z,72.13
2022-08-11T01:05:15.721Z,71.94
2022-08-11T01:06:15.588Z,72.23
2022-08-11T01:07:15.598Z,71.74
2022-08-11T01:08:15.574Z,71.45
2022-08-11T01:09:22.452Z,71.55
2022-08-11T01:10:15.517Z,71.36
2022-08-11T01:11:15.504Z,71.16
2022-08-11T01:12:15.594Z,71.16
2022-08-11T01:13:15.498Z,71.26
2022-08-11T01:14:15.460Z,71.36
2022-08-11T01:15:15.447Z,70.87
2022-08-11T01:16:15.431Z,71.06
2022-08-11T01:17:15.433Z,71.06
2022-08-11T01:18:15.439Z,70.97
2022-08-11T01:19:16.376Z,70.67
2022-08-11T01:20:44.917Z,70.97
2022-08-11T01:21:15.365Z,71.06
2022-08-11T01:22:15.367Z,70.57
2022-08-11T01:23:15.850Z,71.16
2022-08-11T01:24:15.333Z,71.16
2022-08-11T01:25:15.301Z,70.67
2022-08-11T01:26:15.299Z,70.97
2022-08-11T01:27:18.989Z,71.16
2022-08-11T01:28:15.258Z,71.16
2022-08-11T01:29:15.320Z,71.16
2022-08-11T01:30:15.245Z,71.36
2022-08-11T01:31:15.242Z,71.36
2022-08-11T01:32:15.229Z,71.64
2022-08-11T01:33:15.186Z,71.74
2022-08-11T01:34:15.167Z,71.64
2022-08-11T01:35:15.153Z,71.26
2022-08-11T01:36:15.163Z,71.26
2022-08-11T01:37:15.155Z,70.77
2022-08-11T01:38:15.114Z,70.77
2022-08-11T01:39:17.882Z,70.87
2022-08-11T01:40:15.086Z,70.87
2022-08-11T01:41:16.021Z,70.97
2022-08-11T01:42:15.074Z,70.77
2022-08-11T01:43:15.173Z,70.67
2022-08-11T01:44:15.029Z,71.06
2022-08-11T01:45:15.015Z,71.36
2022-08-11T01:46:15.023Z,71.36
2022-08-11T01:47:15.018Z,70.97
2022-08-11T01:48:14.983Z,70.87
2022-08-11T01:50:05.947Z,71.16
2022-08-11T01:50:14.945Z,70.67
2022-08-11T01:51:16.951Z,70.97
2022-08-11T01:52:14.908Z,71.06
2022-08-11T01:53:14.907Z,71.06
2022-08-11T01:54:14.876Z,71.06
2022-08-11T01:55:14.893Z,70.77
2022-08-11T01:56:14.873Z,70.97
2022-08-11T01:57:14.835Z,70.67
2022-08-11T01:58:14.894Z,71.36
2022-08-11T01:59:14.818Z,71.26
2022-08-11T02:00:14.813Z,70.87
2022-08-11T02:01:14.850Z,71.36
2022-08-11T02:02:16.754Z,71.84
2022-08-11T02:03:14.842Z,72.13
2022-08-11T02:04:17.439Z,71.84
2022-08-11T02:05:14.723Z,71.64
2022-08-11T02:06:14.716Z,71.84
2022-08-11T02:07:14.692Z,71.64
2022-08-11T02:08:14.683Z,71.64
2022-08-11T02:09:14.665Z,71.61
2022-08-11T02:10:14.682Z,71.64
2022-08-11T02:11:14.669Z,71.74
2022-08-11T02:12:14.654Z,71.51
2022-08-11T02:13:14.615Z,72.03
2022-08-11T02:14:14.710Z,71.61
2022-08-11T02:15:14.607Z,71.61
2022-08-11T02:16:14.560Z,71.94
2022-08-11T02:17:14.625Z,72.23
2022-08-11T02:18:14.525Z,71.94
2022-08-11T02:19:14.527Z,71.55
2022-08-11T02:20:14.536Z,72.13
2022-08-11T02:21:14.489Z,71.74
2022-08-11T02:22:14.544Z,71.74
2022-08-11T02:23:14.456Z,72.13
2022-08-11T02:24:14.447Z,71.84
2022-08-11T02:25:17.697Z,71.74
2022-08-11T02:26:14.423Z,71.64
2022-08-11T02:27:14.392Z,71.94
2022-08-11T02:28:14.384Z,71.64
2022-08-11T02:29:14.388Z,71.45
2022-08-11T02:30:14.378Z,71.55
2022-08-11T02:32:10.881Z,71.45
2022-08-11T02:32:24.509Z,71.55
2022-08-11T02:33:14.913Z,72.13
2022-08-11T02:34:14.331Z,72.13
2022-08-11T02:35:14.296Z,72.33
2022-08-11T02:36:14.899Z,72.42
2022-08-11T02:37:14.281Z,72.23
2022-08-11T02:38:14.249Z,72.13
2022-08-11T02:39:14.290Z,72.52
2022-08-11T02:40:14.970Z,72.13
2022-08-11T02:41:14.210Z,72.13
2022-08-11T02:42:32.458Z,72.13
2022-08-11T02:43:14.183Z,72.13
2022-08-11T02:44:14.169Z,72.03
2022-08-11T02:45:14.142Z,72.23
2022-08-11T02:46:18.180Z,72.13
2022-08-11T02:47:14.192Z,72.23
2022-08-11T02:48:14.098Z,72.23
2022-08-11T02:49:14.118Z,72.23
2022-08-11T02:50:14.070Z,71.45
2022-08-11T02:51:14.055Z,71.45
2022-08-11T02:52:14.035Z,71.45
2022-08-11T02:53:14.039Z,72.03
2022-08-11T02:54:14.024Z,72.23
2022-08-11T02:55:56.486Z,72.61
2022-08-11T02:56:13.990Z,72.42
2022-08-11T02:57:14.070Z,72.42
2022-08-11T02:58:13.969Z,72.61
2022-08-11T02:59:13.988Z,72.42
2022-08-11T03:00:14.920Z,72.33
2022-08-11T03:01:13.997Z,72.81
2022-08-11T03:02:13.942Z,72.23
2022-08-11T03:03:13.902Z,72.23
2022-08-11T03:04:13.909Z,72.61
2022-08-11T03:05:13.890Z,72.42
2022-08-11T03:06:13.833Z,72.23
2022-08-11T03:07:28.960Z,72.23
2022-08-11T03:08:14.441Z,72.13
2022-08-11T03:09:13.793Z,72.33
2022-08-11T03:10:13.779Z,72.52
2022-08-11T03:11:13.759Z,72.42
2022-08-11T03:12:13.871Z,72.42
2022-08-11T03:13:15.620Z,72.52
2022-08-11T03:14:13.723Z,72.81
2022-08-11T03:15:13.707Z,72.91
2022-08-11T03:16:13.688Z,72.61
2022-08-11T03:17:13.694Z,72.91
2022-08-11T03:18:13.695Z,72.61
2022-08-11T03:19:13.655Z,72.91
2022-08-11T03:20:13.712Z,72.91
2022-08-11T03:21:13.628Z,73.00
2022-08-11T03:22:14.348Z,73.30
2022-08-11T03:23:20.145Z,72.91
2022-08-11T03:24:14.447Z,73.10
2022-08-11T03:25:13.571Z,72.91
2022-08-11T03:26:13.558Z,73.30
2022-08-11T03:27:13.558Z,73.39
2022-08-11T03:28:13.599Z,73.97
2022-08-11T03:29:18.148Z,73.88
2022-08-11T03:30:13.490Z,73.78
2022-08-11T03:31:13.485Z,73.97
2022-08-11T03:32:13.488Z,73.30
2022-08-11T03:33:13.511Z,73.20
2022-08-11T03:34:13.452Z,73.68
2022-08-11T03:35:21.283Z,73.43
2022-08-11T03:36:13.419Z,73.58
2022-08-11T03:37:16.170Z,74.21
2022-08-11T03:38:13.406Z,73.72
2022-08-11T03:39:13.405Z,73.43
2022-08-11T03:40:13.348Z,74.21
2022-08-11T03:42:02.465Z,73.88
2022-08-11T03:42:13.342Z,74.07
2022-08-11T03:43:13.351Z,74.30
2022-08-11T03:44:13.291Z,74.11
2022-08-11T03:45:13.284Z,74.30
2022-08-11T03:46:13.284Z,74.30
2022-08-11T03:47:13.279Z,74.50
2022-08-11T03:48:13.241Z,74.21
2022-08-11T03:49:13.245Z,74.40
2022-08-11T03:50:13.202Z,74.50
2022-08-11T03:51:13.209Z,74.30
2022-08-11T03:52:13.942Z,74.21
2022-08-11T03:53:13.197Z,74.11
2022-08-11T03:54:13.158Z,74.21
2022-08-11T03:55:13.136Z,74.05
2022-08-11T03:56:13.139Z,73.52
2022-08-11T03:57:13.122Z,73.91
2022-08-11T03:58:13.145Z,73.66
2022-08-11T03:59:13.146Z,73.75
2022-08-11T04:00:13.071Z,74.15
2022-08-11T04:01:13.097Z,73.95
2022-08-11T04:02:13.047Z,73.85
2022-08-11T04:03:13.069Z,73.46
2022-08-11T04:04:13.079Z,73.75
2022-08-11T04:05:13.004Z,74.15
2022-08-11T04:06:13.002Z,74.15
2022-08-11T04:07:17.570Z,73.56
2022-08-11T04:08:12.963Z,73.27
2022-08-11T04:09:13.314Z,73.56
2022-08-11T04:10:12.939Z,73.66
2022-08-11T04:11:12.931Z,74.05
2022-08-11T04:12:14.803Z,74.05
2022-08-11T04:13:12.877Z,74.24
2022-08-11T04:14:12.861Z,73.75
2022-08-11T04:15:12.907Z,73.60
2022-08-11T04:16:13.026Z,73.66
2022-08-11T04:17:12.963Z,73.56
2022-08-11T04:18:12.882Z,73.60
2022-08-11T04:19:12.891Z,73.30
2022-08-11T04:20:12.795Z,73.79
2022-08-11T04:21:12.784Z,73.50
2022-08-11T04:22:12.754Z,73.30
2022-08-11T04:23:12.758Z,73.30
2022-08-11T04:24:37.729Z,73.60
2022-08-11T04:25:12.724Z,73.69
2022-08-11T04:26:16.092Z,73.60
2022-08-11T04:27:14.348Z,73.50
2022-08-11T04:28:28.631Z,73.21
2022-08-11T04:29:12.652Z,73.50
2022-08-11T04:30:12.738Z,73.40
2022-08-11T04:31:12.648Z,73.02
2022-08-11T04:32:12.645Z,73.50
2022-08-11T04:33:12.620Z,73.60
2022-08-11T04:34:12.584Z,73.50
2022-08-11T04:35:12.586Z,73.69
2022-08-11T04:36:12.581Z,73.54
2022-08-11T04:37:12.546Z,73.69
2022-08-11T04:38:12.529Z,73.50
2022-08-11T04:39:12.569Z,73.34
2022-08-11T04:40:12.524Z,73.63
2022-08-11T04:41:12.490Z,73.54
2022-08-11T04:42:12.481Z,73.44
2022-08-11T04:43:12.479Z,73.34
2022-08-11T04:44:12.447Z,73.24
2022-08-11T04:45:12.460Z,73.24
2022-08-11T04:46:12.542Z,73.24
2022-08-11T04:47:12.407Z,72.96
2022-08-11T04:48:12.466Z,73.34
2022-08-11T04:49:12.387Z,73.34
2022-08-11T04:50:12.465Z,73.44
2022-08-11T04:51:17.545Z,72.86
2022-08-11T04:52:12.336Z,72.66
2022-08-11T04:53:12.343Z,72.96
2022-08-11T04:54:12.308Z,73.38
2022-08-11T04:55:12.308Z,73.08
2022-08-11T04:56:12.299Z,73.18
2022-08-11T04:57:12.271Z,73.18
2022-08-11T04:58:12.277Z,73.38
2022-08-11T04:59:12.241Z,72.80
2022-08-11T05:00:12.244Z,72.70
2022-08-11T05:01:12.325Z,73.08
2022-08-11T05:02:17.054Z,72.73
2022-08-11T05:03:12.190Z,72.54
2022-08-11T05:04:12.172Z,72.54
2022-08-11T05:05:12.183Z,72.44
2022-08-11T05:06:12.169Z,72.05
2022-08-11T05:07:12.135Z,72.34
2022-08-11T05:08:12.144Z,72.44
2022-08-11T05:09:12.114Z,72.47
2022-08-11T05:10:12.106Z,72.38
2022-08-11T05:11:12.136Z,71.76
2022-08-11T05:12:12.066Z,71.99
2022-08-11T05:13:12.077Z,71.89
2022-08-11T05:14:12.042Z,71.99
2022-08-11T05:15:12.122Z,71.70
2022-08-11T05:16:12.052Z,71.92
2022-08-11T05:17:12.038Z,71.54
2022-08-11T05:18:12.007Z,71.73
2022-08-11T05:19:11.999Z,71.34
2022-08-11T05:20:11.970Z,71.05
2022-08-11T05:21:11.986Z,70.95
2022-08-11T05:22:12.501Z,71.25
2022-08-11T05:23:12.505Z,70.89
2022-08-11T05:24:11.923Z,70.89
2022-08-11T05:25:11.910Z,70.50
2022-08-11T05:26:47.885Z,70.40
2022-08-11T05:27:14.001Z,70.50
2022-08-11T05:28:12.506Z,70.63
2022-08-11T05:29:20.016Z,70.43
2022-08-11T05:30:11.858Z,70.24
2022-08-11T05:31:11.847Z,70.14
2022-08-11T05:32:12.508Z,69.85
2022-08-11T05:33:11.808Z,69.75
2022-08-11T05:34:11.811Z,69.20
2022-08-11T05:36:00.825Z,69.30
2022-08-11T05:36:11.774Z,69.49
2022-08-11T05:37:26.213Z,69.01
2022-08-11T05:38:11.758Z,69.34
2022-08-11T05:39:12.549Z,68.91
2022-08-11T05:40:11.823Z,68.42
2022-08-11T05:41:11.725Z,68.42
2022-08-11T05:42:11.717Z,68.55
2022-08-11T05:43:11.711Z,68.46
2022-08-11T05:44:20.867Z,68.26
2022-08-11T05:45:15.769Z,68.36
2022-08-11T05:46:13.293Z,68.26
2022-08-11T05:47:11.643Z,68.07
2022-08-11T05:48:11.646Z,68.07
2022-08-11T05:49:11.607Z,67.58
2022-08-11T05:50:13.801Z,67.38
2022-08-11T05:51:11.657Z,67.22
2022-08-11T05:52:12.895Z,67.12
2022-08-11T05:53:11.961Z,66.83
2022-08-11T05:54:28.596Z,66.73
2022-08-11T05:55:12.541Z,66.76
2022-08-11T05:56:11.579Z,66.86
2022-08-11T05:57:38.589Z,66.86
2022-08-11T05:58:11.522Z,66.76
2022-08-11T05:59:11.500Z,66.50
2022-08-11T06:00:12.041Z,66.60
2022-08-11T06:01:11.541Z,66.69
2022-08-11T06:02:11.462Z,66.50
2022-08-11T06:03:11.554Z,65.72
2022-08-11T06:04:11.470Z,65.65
2022-08-11T06:05:11.456Z,65.36
2022-08-11T06:06:14.108Z,64.77
2022-08-11T06:07:11.413Z,65.06
2022-08-11T06:08:11.397Z,65.20
2022-08-11T06:09:11.384Z,64.70
2022-08-11T06:10:12.023Z,65.00
2022-08-11T06:11:11.347Z,65.00
2022-08-11T06:12:11.349Z,64.70
2022-08-11T06:13:11.359Z,64.44
2022-08-11T06:14:11.330Z,64.05
2022-08-11T06:15:11.322Z,64.54
2022-08-11T06:16:11.333Z,64.47
2022-08-11T06:17:11.291Z,63.79
2022-08-11T06:18:11.286Z,63.79
2022-08-11T06:19:11.266Z,63.49
2022-08-11T06:20:11.258Z,63.53
2022-08-11T06:21:11.263Z,63.43
2022-08-11T06:22:11.245Z,63.33
2022-08-11T06:23:11.247Z,63.04
2022-08-11T06:24:12.085Z,62.94
2022-08-11T06:25:11.214Z,62.67
2022-08-11T06:26:11.212Z,62.67
2022-08-11T06:27:13.092Z,62.08
2022-08-11T06:28:11.211Z,61.92
2022-08-11T06:29:11.162Z,61.92
2022-08-11T06:30:11.185Z,61.82
2022-08-11T06:31:11.170Z,61.43
2022-08-11T06:32:11.138Z,61.43
2022-08-11T06:33:11.436Z,61.52
2022-08-11T06:34:11.132Z,61.36
2022-08-11T06:35:11.120Z,60.87
2022-08-11T06:36:12.080Z,60.97
2022-08-11T06:37:11.110Z,60.87
2022-08-11T06:38:11.083Z,60.41
2022-08-11T06:39:11.128Z,60.31
2022-08-11T06:40:11.086Z,60.31
2022-08-11T06:41:11.089Z,60.11
2022-08-11T06:42:11.045Z,59.82
2022-08-11T06:43:11.058Z,60.11
2022-08-11T06:44:11.021Z,59.55
2022-08-11T06:45:11.016Z,59.45
2022-08-11T06:46:11.023Z,59.06
2022-08-11T06:47:11.023Z,59.06
2022-08-11T06:48:10.980Z,58.57
2022-08-11T06:49:10.997Z,59.16
2022-08-11T06:50:10.971Z,58.67
2022-08-11T06:51:10.954Z,58.28
2022-08-11T06:52:34.496Z,58.47
2022-08-11T06:53:10.967Z,57.98
2022-08-11T06:54:10.965Z,58.01
2022-08-11T06:55:54.934Z,58.30
2022-08-11T06:56:10.932Z,57.91
2022-08-11T06:57:29.957Z,57.81
2022-08-11T06:58:10.907Z,57.71
2022-08-11T06:59:10.921Z,57.51
2022-08-11T07:00:10.906Z,57.54
2022-08-11T07:01:10.936Z,57.64
2022-08-11T07:02:10.907Z,57.54
2022-08-11T07:03:10.875Z,57.64
2022-08-11T07:04:10.845Z,57.15
2022-08-11T07:05:10.843Z,57.35
2022-08-11T07:06:10.830Z,57.05
2022-08-11T07:07:10.823Z,57.74
2022-08-11T07:08:34.140Z,56.95
2022-08-11T07:09:10.819Z,56.79
2022-08-11T07:10:10.790Z,56.88
2022-08-11T07:11:10.787Z,56.59
2022-08-11T07:12:11.589Z,56.98
2022-08-11T07:13:10.770Z,56.98
2022-08-11T07:14:10.761Z,56.00
2022-08-11T07:15:10.757Z,56.20
2022-08-11T07:16:13.902Z,56.32
2022-08-11T07:17:10.728Z,56.42
2022-08-11T07:18:10.738Z,56.62
2022-08-11T07:19:10.739Z,56.52
2022-08-11T07:20:11.569Z,56.22
2022-08-11T07:22:00.066Z,55.63
2022-08-11T07:22:10.683Z,55.63
2022-08-11T07:23:10.671Z,55.85
2022-08-11T07:24:10.666Z,55.95
2022-08-11T07:25:10.669Z,55.36
2022-08-11T07:26:10.671Z,55.26
2022-08-11T07:27:10.640Z,55.07
2022-08-11T07:28:10.679Z,55.26
2022-08-11T07:29:10.635Z,54.87
2022-08-11T07:30:10.624Z,54.70
2022-08-11T07:31:10.612Z,54.80
2022-08-11T07:32:10.620Z,54.80
2022-08-11T07:33:10.621Z,54.80
2022-08-11T07:34:14.436Z,54.99
2022-08-11T07:35:10.584Z,55.29
2022-08-11T07:36:10.557Z,54.80
2022-08-11T07:37:10.555Z,54.99
2022-08-11T07:38:10.560Z,54.70
2022-08-11T07:39:10.593Z,54.82
2022-08-11T07:40:10.553Z,54.13
2022-08-11T07:41:10.518Z,53.96
2022-08-11T07:42:10.527Z,54.26
2022-08-11T07:43:10.498Z,54.06
2022-08-11T07:44:10.500Z,53.67
2022-08-11T07:45:10.509Z,53.96
2022-08-11T07:46:10.483Z,53.17
2022-08-11T07:47:10.503Z,53.47
2022-08-11T07:48:10.468Z,53.50
2022-08-11T07:49:10.473Z,53.17
2022-08-11T07:50:10.445Z,53.00
2022-08-11T07:51:10.455Z,52.91
2022-08-11T07:52:10.450Z,52.91
2022-08-11T07:53:10.437Z,52.51
2022-08-11T07:54:16.813Z,52.91
2022-08-11T07:55:10.475Z,52.80
2022-08-11T07:56:10.656Z,53.10
2022-08-11T07:58:06.585Z,53.30
2022-08-11T07:58:15.370Z,53.10
2022-08-11T07:59:10.410Z,53.00
2022-08-11T08:00:10.399Z,52.91
2022-08-11T08:01:21.904Z,52.70
2022-08-11T08:02:10.447Z,53.10
2022-08-11T08:03:10.407Z,52.61
2022-08-11T08:04:10.346Z,52.70
2022-08-11T08:05:10.327Z,52.21
2022-08-11T08:06:28.570Z,52.21
2022-08-11T08:07:10.344Z,52.51
2022-08-11T08:08:10.362Z,52.31
2022-08-11T08:09:10.303Z,52.31
2022-08-11T08:10:14.097Z,52.63
2022-08-11T08:11:10.291Z,52.24
2022-08-11T08:12:10.288Z,52.73
2022-08-11T08:13:10.347Z,52.24
2022-08-11T08:14:10.283Z,52.26
2022-08-11T08:15:10.251Z,52.26
2022-08-11T08:16:10.251Z,52.17
2022-08-11T08:17:10.252Z,52.46
2022-08-11T08:18:26.328Z,51.77
2022-08-11T08:19:10.231Z,51.77
2022-08-11T08:20:10.226Z,51.37
2022-08-11T08:21:10.231Z,52.06
2022-08-11T08:22:11.970Z,51.67
2022-08-11T08:23:10.200Z,51.89
2022-08-11T08:24:10.237Z,51.00
2022-08-11T08:25:10.190Z,51.50
2022-08-11T08:26:16.795Z,51.20
2022-08-11T08:27:10.169Z,51.00
2022-08-11T08:28:10.158Z,51.30
2022-08-11T08:29:10.185Z,51.40
2022-08-11T08:30:10.160Z,51.10
2022-08-11T08:31:10.140Z,50.81
2022-08-11T08:32:10.197Z,51.40
2022-08-11T08:33:10.130Z,51.30
2022-08-11T08:34:10.116Z,51.20
2022-08-11T08:35:10.117Z,50.90
2022-08-11T08:36:10.130Z,50.51
2022-08-11T08:37:15.965Z,50.51
2022-08-11T08:38:10.651Z,50.51
2022-08-11T08:39:10.172Z,50.61
2022-08-11T08:40:10.069Z,50.41
2022-08-11T08:41:10.066Z,50.90
2022-08-11T08:42:10.065Z,50.68
2022-08-11T08:43:10.058Z,50.59
2022-08-11T08:44:35.133Z,50.61
2022-08-11T08:45:10.653Z,50.61
2022-08-11T08:46:10.101Z,50.38
2022-08-11T08:47:10.019Z,50.48
2022-08-11T08:48:10.097Z,50.98
2022-08-11T08:49:10.031Z,50.98
2022-08-11T08:50:10.021Z,50.88
2022-08-11T08:51:10.975Z,50.68
2022-08-11T08:52:29.349Z,50.88
2022-08-11T08:53:10.630Z,50.31
2022-08-11T08:54:09.972Z,50.19
2022-08-11T08:55:09.965Z,50.88
2022-08-11T08:56:09.960Z,50.59
2022-08-11T08:57:09.946Z,50.68
2022-08-11T08:58:09.963Z,50.29
2022-08-11T08:59:09.927Z,50.29
2022-08-11T09:00:12.528Z,50.19
2022-08-11T09:01:09.977Z,50.29
2022-08-11T09:02:09.909Z,50.29
2022-08-11T09:03:38.069Z,50.59
2022-08-11T09:04:12.210Z,50.98
2022-08-11T09:05:09.975Z,50.68
2022-08-11T09:06:09.913Z,50.48
2022-08-11T09:07:09.913Z,50.71
2022-08-11T09:08:09.868Z,49.91
2022-08-11T09:09:09.856Z,50.41
2022-08-11T09:10:09.849Z,49.91
2022-08-11T09:11:13.572Z,50.21
2022-08-11T09:12:09.853Z,49.99
2022-08-11T09:13:09.875Z,50.48
2022-08-11T09:14:14.482Z,50.19
2022-08-11T09:15:09.869Z,50.78
2022-08-11T09:16:14.674Z,50.38
2022-08-11T09:17:09.799Z,50.19
2022-08-11T09:18:09.808Z,49.89
2022-08-11T09:19:09.803Z,50.29
2022-08-11T09:20:09.786Z,50.29
2022-08-11T09:21:10.669Z,50.88
2022-08-11T09:22:09.775Z,50.78
2022-08-11T09:24:07.084Z,50.59
2022-08-11T09:24:16.879Z,50.78
2022-08-11T09:25:09.747Z,50.38
2022-08-11T09:26:09.752Z,50.29
2022-08-11T09:27:09.729Z,50.46
2022-08-11T09:28:09.754Z,50.09
2022-08-11T09:29:09.759Z,49.99
2022-08-11T09:30:09.692Z,50.48
2022-08-11T09:31:09.684Z,50.38
2022-08-11T09:32:09.687Z,50.38
2022-08-11T09:33:10.695Z,50.38
2022-08-11T09:34:09.684Z,50.19
2022-08-11T09:35:09.660Z,50.59
2022-08-11T09:36:09.662Z,50.29
2022-08-11T09:37:09.635Z,50.19
2022-08-11T09:38:09.627Z,49.99
2022-08-11T09:39:09.650Z,50.09
2022-08-11T09:40:09.633Z,50.01
2022-08-11T09:41:09.631Z,50.01
2022-08-11T09:42:11.423Z,49.91
2022-08-11T09:43:09.610Z,49.52
2022-08-11T09:44:09.586Z,49.72
2022-08-11T09:45:10.172Z,49.82
2022-08-11T09:46:09.585Z,49.91
2022-08-11T09:47:09.596Z,49.82
2022-08-11T09:48:09.569Z,49.62
2022-08-11T09:49:09.561Z,49.82
2022-08-11T09:50:09.593Z,50.01
2022-08-11T09:51:09.533Z,50.01
2022-08-11T09:52:09.536Z,50.01
2022-08-11T09:53:37.365Z,50.04
2022-08-11T09:54:09.542Z,49.94
2022-08-11T09:55:09.524Z,49.82
2022-08-11T09:56:09.515Z,49.94
2022-08-11T09:57:09.531Z,50.04
2022-08-11T09:58:09.483Z,49.94
2022-08-11T09:59:09.542Z,49.74
2022-08-11T10:00:13.586Z,49.84
2022-08-11T10:01:09.521Z,49.74
2022-08-11T10:02:09.488Z,49.94
2022-08-11T10:03:09.467Z,49.54
2022-08-11T10:04:09.442Z,49.44
2022-08-11T10:05:09.452Z,49.35
2022-08-11T10:06:09.432Z,49.74
2022-08-11T10:07:09.422Z,49.25
2022-08-11T10:08:09.423Z,49.54
2022-08-11T10:09:09.421Z,49.44
2022-08-11T10:10:09.433Z,49.64
2022-08-11T10:11:09.392Z,49.84
2022-08-11T10:12:09.394Z,50.04
2022-08-11T10:14:04.791Z,50.13
2022-08-11T10:14:34.017Z,50.24
2022-08-11T10:15:10.187Z,49.84
2022-08-11T10:16:14.719Z,49.47
2022-08-11T10:17:09.371Z,49.44
2022-08-11T10:18:09.358Z,49.44
2022-08-11T10:19:09.343Z,49.64
2022-08-11T10:20:09.325Z,49.25
2022-08-11T10:21:09.322Z,49.44
2022-08-11T10:22:09.312Z,49.74
2022-08-11T10:23:09.400Z,49.74
2022-08-11T10:24:09.303Z,49.42
2022-08-11T10:25:09.316Z,49.42
2022-08-11T10:26:09.290Z,49.72
2022-08-11T10:27:09.293Z,49.91
2022-08-11T10:28:33.015Z,49.52
2022-08-11T10:29:13.476Z,50.01
2022-08-11T10:30:09.266Z,49.52
2022-08-11T10:31:12.484Z,49.32
2022-08-11T10:32:12.199Z,49.22
2022-08-11T10:33:09.256Z,49.91
2022-08-11T10:34:10.216Z,49.52
2022-08-11T10:35:09.218Z,49.91
2022-08-11T10:36:16.675Z,49.91
2022-08-11T10:37:09.211Z,49.94
2022-08-11T10:38:10.093Z,49.84
2022-08-11T10:39:09.269Z,49.64
2022-08-11T10:40:09.177Z,50.04
2022-08-11T10:41:09.719Z,50.13
2022-08-11T10:42:14.327Z,49.54
2022-08-11T10:43:09.159Z,49.74
2022-08-11T10:44:09.157Z,49.25
2022-08-11T10:45:09.160Z,49.25
2022-08-11T10:46:09.168Z,50.04
2022-08-11T10:47:09.159Z,49.74
2022-08-11T10:48:14.840Z,49.25
2022-08-11T10:49:09.116Z,49.54
2022-08-11T10:50:09.109Z,49.44
2022-08-11T10:51:09.109Z,49.25
2022-08-11T10:52:09.107Z,49.25
2022-08-11T10:53:09.112Z,49.05
2022-08-11T10:54:11.506Z,48.95
2022-08-11T10:55:09.119Z,48.95
2022-08-11T10:56:09.128Z,48.95
2022-08-11T10:57:09.054Z,48.75
2022-08-11T10:58:09.070Z,49.25
2022-08-11T10:59:09.040Z,48.95
2022-08-11T11:00:09.074Z,49.05
2022-08-11T11:01:09.089Z,48.95
2022-08-11T11:02:09.034Z,49.35
2022-08-11T11:03:23.507Z,49.35
2022-08-11T11:04:09.074Z,49.05
2022-08-11T11:05:09.005Z,49.35
2022-08-11T11:06:28.063Z,49.15
2022-08-11T11:07:09.018Z,48.75
2022-08-11T11:08:09.001Z,47.86
2022-08-11T11:09:09.002Z,48.06
2022-08-11T11:10:08.974Z,47.56
2022-08-11T11:11:08.952Z,47.25
2022-08-11T11:12:08.946Z,46.95
2022-08-11T11:13:08.946Z,47.25
2022-08-11T11:14:08.950Z,47.44
2022-08-11T11:15:08.947Z,47.34
2022-08-11T11:16:08.945Z,48.03
2022-08-11T11:17:08.915Z,47.22
2022-08-11T11:18:08.910Z,47.32
2022-08-11T11:19:08.896Z,47.13
2022-08-11T11:20:08.889Z,47.13
2022-08-11T11:21:08.896Z,47.10
2022-08-11T11:22:08.889Z,47.20
2022-08-11T11:23:08.890Z,47.10
2022-08-11T11:24:09.741Z,47.30
2022-08-11T11:25:08.847Z,47.00
2022-08-11T11:26:08.841Z,47.40
2022-08-11T11:27:09.759Z,47.97
2022-08-11T11:28:08.842Z,47.18
2022-08-11T11:29:09.752Z,47.47
2022-08-11T11:30:08.886Z,47.28
2022-08-11T11:31:08.838Z,47.57
2022-08-11T11:32:08.791Z,47.38
2022-08-11T11:33:08.785Z,47.08
2022-08-11T11:34:12.732Z,47.08
2022-08-11T11:35:08.789Z,47.67
2022-08-11T11:36:08.790Z,47.77
2022-08-11T11:37:08.796Z,47.67
2022-08-11T11:38:13.202Z,47.38
2022-08-11T11:39:08.815Z,47.67
2022-08-11T11:40:08.729Z,47.18
2022-08-11T11:41:08.730Z,47.77
2022-08-11T11:42:08.733Z,47.69
2022-08-11T11:43:08.744Z,47.67
2022-08-11T11:44:08.724Z,47.69
2022-08-11T11:45:09.271Z,47.30
2022-08-11T11:46:08.700Z,47.10
2022-08-11T11:47:08.702Z,47.20
2022-08-11T11:48:08.673Z,47.50
2022-08-11T11:49:10.724Z,47.20
2022-08-11T11:50:08.681Z,47.50
2022-08-11T11:51:08.742Z,47.50
2022-08-11T11:52:08.642Z,47.08
2022-08-11T11:53:08.710Z,47.08
2022-08-11T11:54:08.703Z,46.29
2022-08-11T11:55:08.707Z,46.19
2022-08-11T11:56:09.247Z,46.78
2022-08-11T11:57:08.637Z,46.78
2022-08-11T11:58:08.611Z,47.08
2022-08-11T11:59:09.270Z,46.88
2022-08-11T12:00:08.592Z,46.78
2022-08-11T12:01:08.568Z,47.35
2022-08-11T12:02:11.785Z,47.45
2022-08-11T12:03:08.640Z,47.16
2022-08-11T12:04:08.563Z,47.06
2022-08-11T12:05:08.559Z,47.16
2022-08-11T12:06:08.546Z,47.06
2022-08-11T12:07:08.516Z,47.25
2022-08-11T12:08:12.694Z,46.96
2022-08-11T12:09:08.524Z,47.16
2022-08-11T12:10:09.276Z,47.45
2022-08-11T12:11:08.516Z,47.85
2022-08-11T12:12:08.473Z,48.24
2022-08-11T12:13:09.260Z,47.75
2022-08-11T12:14:10.788Z,47.75
2022-08-11T12:15:08.451Z,48.24
2022-08-11T12:16:33.348Z,47.65
2022-08-11T12:17:09.281Z,47.75
2022-08-11T12:18:08.458Z,47.85
2022-08-11T12:19:08.422Z,47.75
2022-08-11T12:20:31.578Z,47.75
2022-08-11T12:21:08.426Z,47.75
2022-08-11T12:22:08.398Z,47.35
2022-08-11T12:23:08.485Z,47.45
2022-08-11T12:24:08.409Z,47.55
2022-08-11T12:25:08.410Z,47.55
2022-08-11T12:26:27.313Z,47.75
2022-08-11T12:27:16.184Z,47.65
2022-08-11T12:28:08.423Z,47.92
2022-08-11T12:29:08.347Z,47.82
2022-08-11T12:30:08.382Z,47.82
2022-08-11T12:31:08.354Z,48.12
2022-08-11T12:32:08.415Z,48.12
2022-08-11T12:33:09.315Z,48.19
2022-08-11T12:34:08.365Z,48.49
2022-08-11T12:35:08.285Z,48.88
2022-08-11T12:36:08.282Z,48.69
2022-08-11T12:37:08.289Z,48.79
2022-08-11T12:38:12.605Z,48.91
2022-08-11T12:39:24.310Z,48.81
2022-08-11T12:40:15.706Z,49.18
2022-08-11T12:41:16.125Z,48.98
2022-08-11T12:42:08.234Z,49.10
2022-08-11T12:43:21.195Z,49.01
2022-08-11T12:44:08.791Z,49.18
2022-08-11T12:45:15.527Z,48.91
2022-08-11T12:46:08.196Z,49.01
2022-08-11T12:47:08.785Z,48.69
2022-08-11T12:48:57.263Z,48.98
2022-08-11T12:49:08.176Z,48.71
2022-08-11T12:50:22.622Z,48.88
2022-08-11T12:51:08.816Z,49.10
2022-08-11T12:52:14.383Z,49.30